sensor_id;sensor_type;location;lat;lon;timestamp;temperature;humidity
27413;DHT22;14871;52.702;5.230;2023-04-15T00:00:39;14.10;91.80
27413;DHT22;14871;52.702;5.230;2023-04-15T00:03:04;14.00;92.10
27413;DHT22;14871;52.702;5.230;2023-04-15T00:05:31;14.10;92.00
27413;DHT22;14871;52.702;5.230;2023-04-15T00:07:58;14.00;92.10
27413;DHT22;14871;52.702;5.230;2023-04-15T00:10:24;14.00;92.20
27413;DHT22;14871;52.702;5.230;2023-04-15T00:12:50;13.90;92.30
27413;DHT22;14871;52.702;5.230;2023-04-15T00:15:17;13.90;92.50
27413;DHT22;14871;52.702;5.230;2023-04-15T00:17:44;13.90;92.60
27413;DHT22;14871;52.702;5.230;2023-04-15T00:20:12;13.80;92.70
27413;DHT22;14871;52.702;5.230;2023-04-15T00:22:37;13.80;92.80
27413;DHT22;14871;52.702;5.230;2023-04-15T00:25:03;13.80;92.90
27413;DHT22;14871;52.702;5.230;2023-04-15T00:27:29;13.80;93.10
27413;DHT22;14871;52.702;5.230;2023-04-15T00:29:55;13.80;93.30
27413;DHT22;14871;52.702;5.230;2023-04-15T00:32:21;13.90;93.10
27413;DHT22;14871;52.702;5.230;2023-04-15T00:34:47;13.90;93.10
27413;DHT22;14871;52.702;5.230;2023-04-15T00:37:14;13.90;93.40
27413;DHT22;14871;52.702;5.230;2023-04-15T00:39:39;13.80;94.00
27413;DHT22;14871;52.702;5.230;2023-04-15T00:42:05;13.90;93.70
27413;DHT22;14871;52.702;5.230;2023-04-15T00:44:31;13.90;93.80
27413;DHT22;14871;52.702;5.230;2023-04-15T00:46:58;13.80;94.00
27413;DHT22;14871;52.702;5.230;2023-04-15T00:49:24;13.70;94.00
27413;DHT22;14871;52.702;5.230;2023-04-15T00:51:51;13.80;94.10
27413;DHT22;14871;52.702;5.230;2023-04-15T00:54:17;13.70;94.20
27413;DHT22;14871;52.702;5.230;2023-04-15T00:56:42;13.70;94.20
27413;DHT22;14871;52.702;5.230;2023-04-15T00:59:08;13.70;94.30
27413;DHT22;14871;52.702;5.230;2023-04-15T01:01:35;13.60;94.40
27413;DHT22;14871;52.702;5.230;2023-04-15T01:04:01;13.60;94.50
27413;DHT22;14871;52.702;5.230;2023-04-15T01:06:27;13.50;94.60
27413;DHT22;14871;52.702;5.230;2023-04-15T01:08:54;13.50;94.90
27413;DHT22;14871;52.702;5.230;2023-04-15T01:11:21;13.50;94.80
27413;DHT22;14871;52.702;5.230;2023-04-15T01:13:49;13.50;94.80
27413;DHT22;14871;52.702;5.230;2023-04-15T01:16:15;13.40;95.20
27413;DHT22;14871;52.702;5.230;2023-04-15T01:18:41;13.40;95.10
27413;DHT22;14871;52.702;5.230;2023-04-15T01:21:07;13.40;95.10
27413;DHT22;14871;52.702;5.230;2023-04-15T01:23:35;13.40;95.30
27413;DHT22;14871;52.702;5.230;2023-04-15T01:26:02;13.50;95.20
27413;DHT22;14871;52.702;5.230;2023-04-15T01:28:28;13.40;95.30
27413;DHT22;14871;52.702;5.230;2023-04-15T01:31:08;13.40;95.40
27413;DHT22;14871;52.702;5.230;2023-04-15T01:33:34;13.40;95.50
27413;DHT22;14871;52.702;5.230;2023-04-15T01:36:00;13.40;95.60
27413;DHT22;14871;52.702;5.230;2023-04-15T01:38:26;13.20;95.80
27413;DHT22;14871;52.702;5.230;2023-04-15T01:40:52;13.30;95.60
27413;DHT22;14871;52.702;5.230;2023-04-15T01:43:18;13.30;95.80
27413;DHT22;14871;52.702;5.230;2023-04-15T01:45:44;13.30;96.00
27413;DHT22;14871;52.702;5.230;2023-04-15T01:48:10;13.30;95.90
27413;DHT22;14871;52.702;5.230;2023-04-15T01:50:36;13.20;96.10
27413;DHT22;14871;52.702;5.230;2023-04-15T01:53:03;13.30;96.10
27413;DHT22;14871;52.702;5.230;2023-04-15T01:55:29;13.20;96.10
27413;DHT22;14871;52.702;5.230;2023-04-15T01:57:55;13.20;96.20
27413;DHT22;14871;52.702;5.230;2023-04-15T02:00:21;13.10;96.30
27413;DHT22;14871;52.702;5.230;2023-04-15T02:02:47;13.10;96.50
27413;DHT22;14871;52.702;5.230;2023-04-15T02:05:14;13.10;96.50
27413;DHT22;14871;52.702;5.230;2023-04-15T02:07:43;13.00;96.50
27413;DHT22;14871;52.702;5.230;2023-04-15T02:10:09;13.00;96.70
27413;DHT22;14871;52.702;5.230;2023-04-15T02:12:36;13.00;96.80
27413;DHT22;14871;52.702;5.230;2023-04-15T02:15:01;13.00;96.90
27413;DHT22;14871;52.702;5.230;2023-04-15T02:17:27;13.00;97.30
27413;DHT22;14871;52.702;5.230;2023-04-15T02:19:55;12.90;97.20
27413;DHT22;14871;52.702;5.230;2023-04-15T02:22:21;12.90;97.10
27413;DHT22;14871;52.702;5.230;2023-04-15T02:24:47;12.90;97.20
27413;DHT22;14871;52.702;5.230;2023-04-15T02:27:16;12.90;97.20
27413;DHT22;14871;52.702;5.230;2023-04-15T02:29:43;12.90;97.40
27413;DHT22;14871;52.702;5.230;2023-04-15T02:32:10;12.90;97.40
27413;DHT22;14871;52.702;5.230;2023-04-15T02:34:37;12.90;97.60
27413;DHT22;14871;52.702;5.230;2023-04-15T02:37:06;12.90;97.60
27413;DHT22;14871;52.702;5.230;2023-04-15T02:39:32;12.80;97.70
27413;DHT22;14871;52.702;5.230;2023-04-15T02:41:58;12.80;97.70
27413;DHT22;14871;52.702;5.230;2023-04-15T02:44:25;12.80;97.90
27413;DHT22;14871;52.702;5.230;2023-04-15T02:46:52;12.80;98.00
27413;DHT22;14871;52.702;5.230;2023-04-15T02:49:23;12.70;98.20
27413;DHT22;14871;52.702;5.230;2023-04-15T02:51:49;12.70;98.40
27413;DHT22;14871;52.702;5.230;2023-04-15T02:54:22;12.70;98.30
27413;DHT22;14871;52.702;5.230;2023-04-15T02:56:48;12.70;98.30
27413;DHT22;14871;52.702;5.230;2023-04-15T02:59:14;12.70;98.50
27413;DHT22;14871;52.702;5.230;2023-04-15T03:01:40;12.70;98.60
27413;DHT22;14871;52.702;5.230;2023-04-15T03:04:05;12.60;98.60
27413;DHT22;14871;52.702;5.230;2023-04-15T03:06:34;12.70;99.00
27413;DHT22;14871;52.702;5.230;2023-04-15T03:09:00;12.60;98.90
27413;DHT22;14871;52.702;5.230;2023-04-15T03:11:31;12.50;99.10
27413;DHT22;14871;52.702;5.230;2023-04-15T03:13:57;12.60;99.00
27413;DHT22;14871;52.702;5.230;2023-04-15T03:16:24;12.50;99.30
27413;DHT22;14871;52.702;5.230;2023-04-15T03:18:50;12.50;99.60
27413;DHT22;14871;52.702;5.230;2023-04-15T03:21:16;12.50;99.60
27413;DHT22;14871;52.702;5.230;2023-04-15T03:23:42;12.50;99.70
27413;DHT22;14871;52.702;5.230;2023-04-15T03:26:07;12.40;99.90
27413;DHT22;14871;52.702;5.230;2023-04-15T03:28:33;12.40;99.90
27413;DHT22;14871;52.702;5.230;2023-04-15T03:30:59;12.40;99.90
27413;DHT22;14871;52.702;5.230;2023-04-15T03:33:25;12.30;99.90
27413;DHT22;14871;52.702;5.230;2023-04-15T03:35:51;12.40;99.90
27413;DHT22;14871;52.702;5.230;2023-04-15T03:38:17;12.30;99.90
27413;DHT22;14871;52.702;5.230;2023-04-15T03:40:44;12.30;99.90
27413;DHT22;14871;52.702;5.230;2023-04-15T03:43:10;12.20;99.90
27413;DHT22;14871;52.702;5.230;2023-04-15T03:45:36;12.30;99.90
27413;DHT22;14871;52.702;5.230;2023-04-15T03:48:02;12.20;99.90
27413;DHT22;14871;52.702;5.230;2023-04-15T03:50:28;12.20;99.90
27413;DHT22;14871;52.702;5.230;2023-04-15T03:52:54;12.20;99.90
27413;DHT22;14871;52.702;5.230;2023-04-15T03:55:19;12.20;99.90
27413;DHT22;14871;52.702;5.230;2023-04-15T03:57:45;12.10;99.90
27413;DHT22;14871;52.702;5.230;2023-04-15T04:00:11;12.20;99.90
27413;DHT22;14871;52.702;5.230;2023-04-15T04:02:37;12.10;99.90
27413;DHT22;14871;52.702;5.230;2023-04-15T04:05:03;12.20;99.90
27413;DHT22;14871;52.702;5.230;2023-04-15T04:07:29;12.00;99.90
27413;DHT22;14871;52.702;5.230;2023-04-15T04:09:56;12.20;99.90
27413;DHT22;14871;52.702;5.230;2023-04-15T04:12:22;12.10;99.90
27413;DHT22;14871;52.702;5.230;2023-04-15T04:14:48;12.10;99.90
27413;DHT22;14871;52.702;5.230;2023-04-15T04:17:13;12.00;99.90
27413;DHT22;14871;52.702;5.230;2023-04-15T04:19:39;12.00;99.90
27413;DHT22;14871;52.702;5.230;2023-04-15T04:22:05;12.00;99.90
27413;DHT22;14871;52.702;5.230;2023-04-15T04:24:31;12.00;99.90
27413;DHT22;14871;52.702;5.230;2023-04-15T04:26:56;12.00;99.90
27413;DHT22;14871;52.702;5.230;2023-04-15T04:29:22;12.00;99.90
27413;DHT22;14871;52.702;5.230;2023-04-15T04:31:48;11.90;99.90
27413;DHT22;14871;52.702;5.230;2023-04-15T04:34:14;11.90;99.90
27413;DHT22;14871;52.702;5.230;2023-04-15T04:36:40;11.90;99.90
27413;DHT22;14871;52.702;5.230;2023-04-15T04:39:06;11.90;99.90
27413;DHT22;14871;52.702;5.230;2023-04-15T04:41:32;11.80;99.90
27413;DHT22;14871;52.702;5.230;2023-04-15T04:43:58;11.90;99.90
27413;DHT22;14871;52.702;5.230;2023-04-15T04:46:24;11.90;99.90
27413;DHT22;14871;52.702;5.230;2023-04-15T04:48:49;11.90;99.90
27413;DHT22;14871;52.702;5.230;2023-04-15T04:51:15;11.80;99.90
27413;DHT22;14871;52.702;5.230;2023-04-15T04:53:41;11.90;99.90
27413;DHT22;14871;52.702;5.230;2023-04-15T04:56:07;11.80;99.90
27413;DHT22;14871;52.702;5.230;2023-04-15T04:58:33;11.80;99.90
27413;DHT22;14871;52.702;5.230;2023-04-15T05:00:59;11.80;99.90
27413;DHT22;14871;52.702;5.230;2023-04-15T05:03:25;11.80;99.90
27413;DHT22;14871;52.702;5.230;2023-04-15T05:05:51;11.80;99.90
27413;DHT22;14871;52.702;5.230;2023-04-15T05:08:17;11.80;99.90
27413;DHT22;14871;52.702;5.230;2023-04-15T05:10:43;11.90;99.90
27413;DHT22;14871;52.702;5.230;2023-04-15T05:13:08;11.80;99.90
27413;DHT22;14871;52.702;5.230;2023-04-15T05:15:34;11.90;99.90
27413;DHT22;14871;52.702;5.230;2023-04-15T05:18:01;11.90;99.90
27413;DHT22;14871;52.702;5.230;2023-04-15T05:20:27;11.80;99.90
27413;DHT22;14871;52.702;5.230;2023-04-15T05:22:53;11.80;99.90
27413;DHT22;14871;52.702;5.230;2023-04-15T05:25:19;11.90;99.90
27413;DHT22;14871;52.702;5.230;2023-04-15T05:27:44;11.80;99.90
27413;DHT22;14871;52.702;5.230;2023-04-15T05:30:11;11.90;99.90
27413;DHT22;14871;52.702;5.230;2023-04-15T05:32:37;11.80;99.90
27413;DHT22;14871;52.702;5.230;2023-04-15T05:35:04;11.80;99.90
27413;DHT22;14871;52.702;5.230;2023-04-15T05:37:31;11.80;99.90
27413;DHT22;14871;52.702;5.230;2023-04-15T05:39:57;11.80;99.90
27413;DHT22;14871;52.702;5.230;2023-04-15T05:42:22;11.80;99.90
27413;DHT22;14871;52.702;5.230;2023-04-15T05:44:48;11.70;99.90
27413;DHT22;14871;52.702;5.230;2023-04-15T05:47:14;11.70;99.90
27413;DHT22;14871;52.702;5.230;2023-04-15T05:49:40;11.70;99.90
27413;DHT22;14871;52.702;5.230;2023-04-15T05:52:05;11.70;99.90
27413;DHT22;14871;52.702;5.230;2023-04-15T05:54:31;11.60;99.90
27413;DHT22;14871;52.702;5.230;2023-04-15T05:56:57;11.70;99.90
27413;DHT22;14871;52.702;5.230;2023-04-15T05:59:23;11.60;99.90
27413;DHT22;14871;52.702;5.230;2023-04-15T06:01:49;11.70;99.90
27413;DHT22;14871;52.702;5.230;2023-04-15T06:04:16;11.70;99.90
27413;DHT22;14871;52.702;5.230;2023-04-15T06:06:42;11.70;99.90
27413;DHT22;14871;52.702;5.230;2023-04-15T06:09:08;11.60;99.90
27413;DHT22;14871;52.702;5.230;2023-04-15T06:11:33;11.70;99.90
27413;DHT22;14871;52.702;5.230;2023-04-15T06:13:59;11.70;99.90
27413;DHT22;14871;52.702;5.230;2023-04-15T06:16:25;11.60;99.90
27413;DHT22;14871;52.702;5.230;2023-04-15T06:18:51;11.60;99.90
27413;DHT22;14871;52.702;5.230;2023-04-15T06:21:17;11.60;99.90
27413;DHT22;14871;52.702;5.230;2023-04-15T06:23:43;11.60;99.90
27413;DHT22;14871;52.702;5.230;2023-04-15T06:26:08;11.70;99.90
27413;DHT22;14871;52.702;5.230;2023-04-15T06:28:34;11.70;99.90
27413;DHT22;14871;52.702;5.230;2023-04-15T06:31:00;11.70;99.90
27413;DHT22;14871;52.702;5.230;2023-04-15T06:33:26;11.70;99.90
27413;DHT22;14871;52.702;5.230;2023-04-15T06:35:52;11.70;99.90
27413;DHT22;14871;52.702;5.230;2023-04-15T06:38:18;11.80;99.90
27413;DHT22;14871;52.702;5.230;2023-04-15T06:40:43;11.80;99.90
27413;DHT22;14871;52.702;5.230;2023-04-15T06:43:09;11.70;99.90
27413;DHT22;14871;52.702;5.230;2023-04-15T06:45:35;11.70;99.90
27413;DHT22;14871;52.702;5.230;2023-04-15T06:48:00;11.90;99.90
27413;DHT22;14871;52.702;5.230;2023-04-15T06:50:26;11.90;99.90
27413;DHT22;14871;52.702;5.230;2023-04-15T06:52:55;11.90;99.90
27413;DHT22;14871;52.702;5.230;2023-04-15T06:55:22;12.10;99.90
27413;DHT22;14871;52.702;5.230;2023-04-15T06:57:47;12.10;99.90
27413;DHT22;14871;52.702;5.230;2023-04-15T07:00:13;12.30;99.90
27413;DHT22;14871;52.702;5.230;2023-04-15T07:02:40;12.40;99.90
27413;DHT22;14871;52.702;5.230;2023-04-15T07:05:08;12.40;99.90
27413;DHT22;14871;52.702;5.230;2023-04-15T07:07:34;12.60;99.90
27413;DHT22;14871;52.702;5.230;2023-04-15T07:10:00;12.70;99.90
27413;DHT22;14871;52.702;5.230;2023-04-15T07:12:27;12.80;99.90
27413;DHT22;14871;52.702;5.230;2023-04-15T07:14:53;13.00;99.90
27413;DHT22;14871;52.702;5.230;2023-04-15T07:17:19;13.20;99.90
27413;DHT22;14871;52.702;5.230;2023-04-15T07:19:45;13.20;99.90
27413;DHT22;14871;52.702;5.230;2023-04-15T07:22:10;13.30;99.90
27413;DHT22;14871;52.702;5.230;2023-04-15T07:24:36;13.50;99.90
27413;DHT22;14871;52.702;5.230;2023-04-15T07:27:02;13.60;99.90
27413;DHT22;14871;52.702;5.230;2023-04-15T07:29:28;13.80;99.90
27413;DHT22;14871;52.702;5.230;2023-04-15T07:31:54;13.90;99.90
27413;DHT22;14871;52.702;5.230;2023-04-15T07:34:21;14.10;99.90
27413;DHT22;14871;52.702;5.230;2023-04-15T07:36:47;14.20;99.90
27413;DHT22;14871;52.702;5.230;2023-04-15T07:39:15;14.40;99.90
27413;DHT22;14871;52.702;5.230;2023-04-15T07:41:41;14.50;99.90
27413;DHT22;14871;52.702;5.230;2023-04-15T07:44:06;14.60;99.90
27413;DHT22;14871;52.702;5.230;2023-04-15T07:46:32;14.70;99.90
27413;DHT22;14871;52.702;5.230;2023-04-15T07:48:58;14.60;99.90
27413;DHT22;14871;52.702;5.230;2023-04-15T07:51:24;14.80;99.90
27413;DHT22;14871;52.702;5.230;2023-04-15T07:53:50;14.90;99.90
27413;DHT22;14871;52.702;5.230;2023-04-15T07:56:16;15.00;99.90
27413;DHT22;14871;52.702;5.230;2023-04-15T07:58:42;15.00;99.90
27413;DHT22;14871;52.702;5.230;2023-04-15T08:01:08;15.20;99.90
27413;DHT22;14871;52.702;5.230;2023-04-15T08:03:33;15.30;99.90
27413;DHT22;14871;52.702;5.230;2023-04-15T08:05:59;15.40;99.90
27413;DHT22;14871;52.702;5.230;2023-04-15T08:08:25;15.30;99.90
27413;DHT22;14871;52.702;5.230;2023-04-15T08:10:51;15.40;99.90
27413;DHT22;14871;52.702;5.230;2023-04-15T08:13:17;15.60;99.90
27413;DHT22;14871;52.702;5.230;2023-04-15T08:15:43;15.80;99.90
27413;DHT22;14871;52.702;5.230;2023-04-15T08:18:09;16.00;99.90
27413;DHT22;14871;52.702;5.230;2023-04-15T08:20:35;16.30;99.90
27413;DHT22;14871;52.702;5.230;2023-04-15T08:23:01;16.50;99.90
27413;DHT22;14871;52.702;5.230;2023-04-15T08:25:27;16.50;99.90
27413;DHT22;14871;52.702;5.230;2023-04-15T08:27:56;16.60;99.90
27413;DHT22;14871;52.702;5.230;2023-04-15T08:30:22;16.80;99.90
27413;DHT22;14871;52.702;5.230;2023-04-15T08:32:49;16.80;99.90
27413;DHT22;14871;52.702;5.230;2023-04-15T08:35:14;16.80;99.90
27413;DHT22;14871;52.702;5.230;2023-04-15T08:37:40;16.90;99.90
27413;DHT22;14871;52.702;5.230;2023-04-15T08:40:06;16.90;99.70
27413;DHT22;14871;52.702;5.230;2023-04-15T08:42:41;16.90;99.90
27413;DHT22;14871;52.702;5.230;2023-04-15T08:45:08;16.90;99.90
27413;DHT22;14871;52.702;5.230;2023-04-15T08:47:37;16.80;99.80
27413;DHT22;14871;52.702;5.230;2023-04-15T08:50:08;16.80;99.60
27413;DHT22;14871;52.702;5.230;2023-04-15T08:52:34;17.00;99.80
27413;DHT22;14871;52.702;5.230;2023-04-15T08:55:01;17.10;99.80
27413;DHT22;14871;52.702;5.230;2023-04-15T08:57:28;17.30;99.70
27413;DHT22;14871;52.702;5.230;2023-04-15T08:59:57;17.40;98.90
27413;DHT22;14871;52.702;5.230;2023-04-15T09:02:24;17.40;98.30
27413;DHT22;14871;52.702;5.230;2023-04-15T09:04:52;17.40;99.00
27413;DHT22;14871;52.702;5.230;2023-04-15T09:07:17;17.60;99.20
27413;DHT22;14871;52.702;5.230;2023-04-15T09:09:47;17.80;99.20
27413;DHT22;14871;52.702;5.230;2023-04-15T09:12:12;18.00;98.90
27413;DHT22;14871;52.702;5.230;2023-04-15T09:14:39;18.00;98.10
27413;DHT22;14871;52.702;5.230;2023-04-15T09:17:09;17.90;97.70
27413;DHT22;14871;52.702;5.230;2023-04-15T09:19:39;18.00;97.60
27413;DHT22;14871;52.702;5.230;2023-04-15T09:22:14;17.90;96.90
27413;DHT22;14871;52.702;5.230;2023-04-15T09:24:41;17.90;97.20
27413;DHT22;14871;52.702;5.230;2023-04-15T09:27:08;18.00;97.30
27413;DHT22;14871;52.702;5.230;2023-04-15T09:29:33;18.10;97.40
27413;DHT22;14871;52.702;5.230;2023-04-15T09:32:10;18.20;96.70
27413;DHT22;14871;52.702;5.230;2023-04-15T09:34:36;18.20;96.30
27413;DHT22;14871;52.702;5.230;2023-04-15T09:37:02;18.30;96.30
27413;DHT22;14871;52.702;5.230;2023-04-15T09:39:47;18.50;96.20
27413;DHT22;14871;52.702;5.230;2023-04-15T09:42:14;18.50;95.80
27413;DHT22;14871;52.702;5.230;2023-04-15T09:44:41;18.70;95.60
27413;DHT22;14871;52.702;5.230;2023-04-15T09:47:07;18.80;95.20
27413;DHT22;14871;52.702;5.230;2023-04-15T09:49:32;18.90;95.30
27413;DHT22;14871;52.702;5.230;2023-04-15T09:52:01;18.90;94.80
27413;DHT22;14871;52.702;5.230;2023-04-15T09:54:37;18.90;94.80
27413;DHT22;14871;52.702;5.230;2023-04-15T09:57:07;18.60;94.40
27413;DHT22;14871;52.702;5.230;2023-04-15T09:59:34;18.60;94.70
27413;DHT22;14871;52.702;5.230;2023-04-15T10:02:03;18.30;95.00
27413;DHT22;14871;52.702;5.230;2023-04-15T10:04:31;18.30;94.90
27413;DHT22;14871;52.702;5.230;2023-04-15T10:07:00;18.20;95.20
27413;DHT22;14871;52.702;5.230;2023-04-15T10:09:28;17.90;95.20
27413;DHT22;14871;52.702;5.230;2023-04-15T10:11:54;17.70;95.60
27413;DHT22;14871;52.702;5.230;2023-04-15T10:14:20;17.50;96.50
27413;DHT22;14871;52.702;5.230;2023-04-15T10:16:47;17.60;97.00
27413;DHT22;14871;52.702;5.230;2023-04-15T10:19:14;17.70;96.60
27413;DHT22;14871;52.702;5.230;2023-04-15T10:21:43;17.50;96.90
27413;DHT22;14871;52.702;5.230;2023-04-15T10:24:10;17.50;96.90
27413;DHT22;14871;52.702;5.230;2023-04-15T10:26:37;17.50;96.30
27413;DHT22;14871;52.702;5.230;2023-04-15T10:29:03;17.60;96.40
27413;DHT22;14871;52.702;5.230;2023-04-15T10:31:30;18.00;96.10
27413;DHT22;14871;52.702;5.230;2023-04-15T10:33:56;18.10;95.50
27413;DHT22;14871;52.702;5.230;2023-04-15T10:36:22;18.30;95.70
27413;DHT22;14871;52.702;5.230;2023-04-15T10:38:48;18.50;94.70
27413;DHT22;14871;52.702;5.230;2023-04-15T10:43:45;19.00;93.80
27413;DHT22;14871;52.702;5.230;2023-04-15T10:46:12;19.20;94.00
27413;DHT22;14871;52.702;5.230;2023-04-15T10:48:37;19.40;93.70
27413;DHT22;14871;52.702;5.230;2023-04-15T10:51:04;19.60;93.20
27413;DHT22;14871;52.702;5.230;2023-04-15T10:53:30;19.60;92.80
27413;DHT22;14871;52.702;5.230;2023-04-15T10:55:59;19.60;92.30
27413;DHT22;14871;52.702;5.230;2023-04-15T10:58:25;19.70;92.50
27413;DHT22;14871;52.702;5.230;2023-04-15T11:00:52;19.70;92.90
27413;DHT22;14871;52.702;5.230;2023-04-15T11:03:39;19.80;92.50
27413;DHT22;14871;52.702;5.230;2023-04-15T11:06:06;19.90;92.30
27413;DHT22;14871;52.702;5.230;2023-04-15T11:11:20;19.90;92.40
27413;DHT22;14871;52.702;5.230;2023-04-15T11:13:49;19.80;92.90
27413;DHT22;14871;52.702;5.230;2023-04-15T11:16:16;20.00;92.90
27413;DHT22;14871;52.702;5.230;2023-04-15T11:18:42;20.20;93.10
27413;DHT22;14871;52.702;5.230;2023-04-15T11:21:17;20.50;92.90
27413;DHT22;14871;52.702;5.230;2023-04-15T11:23:44;20.60;92.40
27413;DHT22;14871;52.702;5.230;2023-04-15T11:26:12;20.80;92.10
27413;DHT22;14871;52.702;5.230;2023-04-15T11:28:43;20.70;91.50
27413;DHT22;14871;52.702;5.230;2023-04-15T11:31:18;20.90;90.70
27413;DHT22;14871;52.702;5.230;2023-04-15T11:33:55;20.90;90.50
27413;DHT22;14871;52.702;5.230;2023-04-15T11:36:26;20.80;89.20
27413;DHT22;14871;52.702;5.230;2023-04-15T11:38:53;20.70;89.00
27413;DHT22;14871;52.702;5.230;2023-04-15T11:41:22;20.60;90.10
27413;DHT22;14871;52.702;5.230;2023-04-15T11:43:51;20.40;90.00
27413;DHT22;14871;52.702;5.230;2023-04-15T11:46:18;20.50;90.70
27413;DHT22;14871;52.702;5.230;2023-04-15T11:48:46;20.50;90.90
27413;DHT22;14871;52.702;5.230;2023-04-15T11:51:13;20.50;90.30
27413;DHT22;14871;52.702;5.230;2023-04-15T11:53:46;20.50;90.10
27413;DHT22;14871;52.702;5.230;2023-04-15T11:56:23;20.60;90.50
27413;DHT22;14871;52.702;5.230;2023-04-15T11:58:57;20.70;90.60
27413;DHT22;14871;52.702;5.230;2023-04-15T12:01:35;20.80;90.50
27413;DHT22;14871;52.702;5.230;2023-04-15T12:04:16;21.10;87.90
27413;DHT22;14871;52.702;5.230;2023-04-15T12:06:44;20.90;88.80
27413;DHT22;14871;52.702;5.230;2023-04-15T12:09:12;21.10;88.70
27413;DHT22;14871;52.702;5.230;2023-04-15T12:14:15;21.10;86.40
27413;DHT22;14871;52.702;5.230;2023-04-15T12:16:44;21.00;87.00
27413;DHT22;14871;52.702;5.230;2023-04-15T12:19:13;20.70;87.20
27413;DHT22;14871;52.702;5.230;2023-04-15T12:21:41;20.30;87.50
27413;DHT22;14871;52.702;5.230;2023-04-15T12:24:10;20.10;87.90
27413;DHT22;14871;52.702;5.230;2023-04-15T12:26:48;19.80;88.20
27413;DHT22;14871;52.702;5.230;2023-04-15T12:29:15;19.90;89.00
27413;DHT22;14871;52.702;5.230;2023-04-15T12:34:37;19.40;90.00
27413;DHT22;14871;52.702;5.230;2023-04-15T12:37:05;19.10;90.80
27413;DHT22;14871;52.702;5.230;2023-04-15T12:39:39;19.00;91.00
27413;DHT22;14871;52.702;5.230;2023-04-15T12:42:07;18.90;90.70
27413;DHT22;14871;52.702;5.230;2023-04-15T12:44:34;18.70;91.30
27413;DHT22;14871;52.702;5.230;2023-04-15T12:47:00;18.50;92.00
27413;DHT22;14871;52.702;5.230;2023-04-15T12:49:26;18.40;91.70
27413;DHT22;14871;52.702;5.230;2023-04-15T12:51:53;18.20;92.30
27413;DHT22;14871;52.702;5.230;2023-04-15T12:54:19;18.10;92.40
27413;DHT22;14871;52.702;5.230;2023-04-15T12:56:47;18.00;92.80
27413;DHT22;14871;52.702;5.230;2023-04-15T12:59:14;17.90;93.10
27413;DHT22;14871;52.702;5.230;2023-04-15T13:01:40;17.90;92.90
27413;DHT22;14871;52.702;5.230;2023-04-15T13:04:06;17.80;92.90
27413;DHT22;14871;52.702;5.230;2023-04-15T13:06:32;17.70;92.50
27413;DHT22;14871;52.702;5.230;2023-04-15T13:08:59;17.50;92.80
27413;DHT22;14871;52.702;5.230;2023-04-15T13:11:27;17.50;93.00
27413;DHT22;14871;52.702;5.230;2023-04-15T13:13:55;17.60;92.70
27413;DHT22;14871;52.702;5.230;2023-04-15T13:16:24;17.30;93.00
27413;DHT22;14871;52.702;5.230;2023-04-15T13:18:50;17.40;93.20
27413;DHT22;14871;52.702;5.230;2023-04-15T13:21:15;17.30;93.10
27413;DHT22;14871;52.702;5.230;2023-04-15T13:23:42;17.20;93.30
27413;DHT22;14871;52.702;5.230;2023-04-15T13:26:07;17.10;93.50
27413;DHT22;14871;52.702;5.230;2023-04-15T13:28:33;17.00;93.80
27413;DHT22;14871;52.702;5.230;2023-04-15T13:30:59;17.10;93.90
27413;DHT22;14871;52.702;5.230;2023-04-15T13:33:26;17.10;93.90
27413;DHT22;14871;52.702;5.230;2023-04-15T13:35:52;17.10;93.60
27413;DHT22;14871;52.702;5.230;2023-04-15T13:38:17;17.00;93.40
27413;DHT22;14871;52.702;5.230;2023-04-15T13:40:43;17.00;93.20
27413;DHT22;14871;52.702;5.230;2023-04-15T13:43:09;16.90;93.40
27413;DHT22;14871;52.702;5.230;2023-04-15T13:45:35;17.00;93.70
27413;DHT22;14871;52.702;5.230;2023-04-15T13:48:01;16.90;93.80
27413;DHT22;14871;52.702;5.230;2023-04-15T13:50:27;16.70;93.80
27413;DHT22;14871;52.702;5.230;2023-04-15T13:52:54;16.80;93.60
27413;DHT22;14871;52.702;5.230;2023-04-15T13:55:22;16.40;94.40
27413;DHT22;14871;52.702;5.230;2023-04-15T13:57:48;16.40;94.70
27413;DHT22;14871;52.702;5.230;2023-04-15T14:00:15;16.20;94.90
27413;DHT22;14871;52.702;5.230;2023-04-15T14:02:41;16.10;94.80
27413;DHT22;14871;52.702;5.230;2023-04-15T14:05:07;16.00;94.60
27413;DHT22;14871;52.702;5.230;2023-04-15T14:07:37;16.00;94.70
27413;DHT22;14871;52.702;5.230;2023-04-15T14:10:03;16.10;94.60
27413;DHT22;14871;52.702;5.230;2023-04-15T14:12:29;16.00;94.80
27413;DHT22;14871;52.702;5.230;2023-04-15T14:14:55;16.00;95.00
27413;DHT22;14871;52.702;5.230;2023-04-15T14:17:21;15.80;95.40
27413;DHT22;14871;52.702;5.230;2023-04-15T14:19:47;15.90;95.40
27413;DHT22;14871;52.702;5.230;2023-04-15T14:22:13;15.90;95.70
27413;DHT22;14871;52.702;5.230;2023-04-15T14:24:38;15.60;96.00
27413;DHT22;14871;52.702;5.230;2023-04-15T14:27:05;15.60;96.10
27413;DHT22;14871;52.702;5.230;2023-04-15T14:29:33;15.50;96.40
27413;DHT22;14871;52.702;5.230;2023-04-15T14:31:58;15.30;96.20
27413;DHT22;14871;52.702;5.230;2023-04-15T14:34:24;15.40;95.70
27413;DHT22;14871;52.702;5.230;2023-04-15T14:36:50;15.40;96.00
27413;DHT22;14871;52.702;5.230;2023-04-15T14:39:19;15.50;95.90
27413;DHT22;14871;52.702;5.230;2023-04-15T14:41:46;15.50;96.00
27413;DHT22;14871;52.702;5.230;2023-04-15T14:44:12;15.40;96.30
27413;DHT22;14871;52.702;5.230;2023-04-15T14:46:38;15.20;96.60
27413;DHT22;14871;52.702;5.230;2023-04-15T14:49:05;15.20;96.20
27413;DHT22;14871;52.702;5.230;2023-04-15T14:51:31;15.10;96.50
27413;DHT22;14871;52.702;5.230;2023-04-15T14:53:57;15.10;96.70
27413;DHT22;14871;52.702;5.230;2023-04-15T14:56:23;15.20;96.60
27413;DHT22;14871;52.702;5.230;2023-04-15T14:58:49;15.30;96.10
27413;DHT22;14871;52.702;5.230;2023-04-15T15:01:17;15.30;96.60
27413;DHT22;14871;52.702;5.230;2023-04-15T15:03:43;15.40;96.70
27413;DHT22;14871;52.702;5.230;2023-04-15T15:06:09;15.10;97.50
27413;DHT22;14871;52.702;5.230;2023-04-15T15:08:35;15.00;98.00
27413;DHT22;14871;52.702;5.230;2023-04-15T15:11:01;14.90;98.30
27413;DHT22;14871;52.702;5.230;2023-04-15T15:13:27;15.00;98.50
27413;DHT22;14871;52.702;5.230;2023-04-15T15:15:53;15.00;97.90
27413;DHT22;14871;52.702;5.230;2023-04-15T15:18:18;14.90;97.70
27413;DHT22;14871;52.702;5.230;2023-04-15T15:20:45;14.60;98.10
27413;DHT22;14871;52.702;5.230;2023-04-15T15:23:11;14.60;98.40
27413;DHT22;14871;52.702;5.230;2023-04-15T15:25:37;14.60;98.40
27413;DHT22;14871;52.702;5.230;2023-04-15T15:28:03;14.70;98.80
27413;DHT22;14871;52.702;5.230;2023-04-15T15:30:28;14.70;99.10
27413;DHT22;14871;52.702;5.230;2023-04-15T15:32:55;14.80;99.00
27413;DHT22;14871;52.702;5.230;2023-04-15T15:35:20;14.90;98.70
27413;DHT22;14871;52.702;5.230;2023-04-15T15:37:47;14.70;98.50